Skelton, AK

8:01 AM AKDT on September 23, 2014 (GMT -0800)
Eureka | Change Station
CLOSE
Current Station
Airport
Location: Eureka,
Elevation: 3287 ft
Nearby Weather Stations
Active Advisory: Areal Flood Advisory Active Notice: Record Report

Elev 3287 ft 61.93 °N, 147.17 °W | Updated 5 minutes ago

Overcast
Overcast
30 °F
Feels Like 30 °F
N
0
Wind Variable Wind from North

Today
High -- | Low -- °F
--% Chance of Precip.
Yesterday
High -- | Low -- °F
Precip. -- in
7:35 AM 7:44 PM
Waning Crescent, 0% visible
Pressure 29.83 in
Visibility 10.0 miles
Clouds Overcast 6000 ft
Dew Point 30 °F
Humidity 100%
Rainfall 0.00 in
Snow Depth 0 in , 1 in , 0 in
UV 0 out of 12
Pollen Not available.
Air Quality Not available.
Flu Activity Not available.
METAR PAZK 231556Z AUTO 00000KT 10SM OVC060 M01/M01 A2983 RMK AO1

More Conditions Fewer Conditions

Pressure 29.83 in
Visibility 10.0 miles
Clouds Overcast 6000 ft
Dew Point 30 °F
Humidity 100%
Rainfall 0.00 in
Snow Depth 0 in , 1 in , 0 in
UV 0 out of 12
Pollen Not available.
Air Quality Not available.
Flu Activity Not available.
METAR PAZK 231556Z AUTO 00000KT 10SM OVC060 M01/M01 A2983 RMK AO1

More Conditions Fewer Conditions

10-Day Weather Forecast

Almanac

Astronomy

Sep. 23, 2014 Rise Set
Actual Time 7:35 AM AKDT 7:44 PM AKDT
Civil Twilight 6:51 AM AKDT 8:28 PM AKDT
Nautical Twilight 5:57 AM AKDT 9:22 PM AKDT
Astronomical Twilight 4:58 AM AKDT 10:20 PM AKDT
Moon 7:08 AM AKDT 7:21 PM AKDT
Length of Visible Light 13h 37m
Length of Day
12h 09m
Tomorrow will be 5m 51s shorter.
Waning Crescent, 0% of the Moon is Illuminated
Today
Waning Crescent
Sep 24
New
Oct 1
First Quarter
Oct 8
Full
Oct 15
Last Quarter

Today's Extremes

State Highs State Lows

Community

WunderPhotos

Upload Photos

1,755,737 photos uploaded!

WunderBlogs® & News

Nearby

Snow Depth

Station Depth Elevation
Port Graham 0 in 300 ft
Eagle Summit 1 in 3650 ft
Long Lake 0 in 820 ft
Granite Creek 0 in 1240 ft
Munson Ridge 1 in 3100 ft

Earthquake Activity

City Distance Mag. Time & Date
No recent earthquake activity has been reported nearby.
Minimum magnitude displayed is 2.5.

Coastal Water Temperatures

Place Temperature
No Stations Reporting

Nearby Weather Stations